• Join FlightAware (Why Join?)
  • Login
  • US Flag 
01:03AM EDT


 

Airport Tracker/Info


-or-


 

Live Flight TrackerFlight Track Log ✈ AWI3962 ✈ 27-Nov-2013 ✈ KPHL - KALB

Flight Track Log - Related Links

Times and Time Zones

All times are in EST time to prevent confusion due to time zone crossing. See the AWI3962 flight status page for this flight to view local times or setup timezone preferences in your user account.

Time Position Orientation Groundspeed Altitude Reporting Facility
EST Latitude Longitude Course Direction KTS MPH feet Rate Location/Type
04:25PM 39.8667 -75.2667 218° Southwest 146 168 700  Level Philadelphia TRACON
04:26PM 39.8167 -75.3167 218° Southwest 231 266 3,200 2,040 Climbing Philadelphia TRACON
04:27PM 39.7500 -75.3500 201° Southwest 300 345 4,900 2,580 Climbing Philadelphia TRACON
04:28PM 39.7000 -75.2833 134° Southeast 279 321 8,200 2,580 Climbing Philadelphia TRACON
04:29PM 39.7000 -75.1833 90° East 327 376 10,100 1,740 Climbing Philadelphia TRACON
04:30PM 39.7333 -75.0500 72° East 341 392 11,900 840 Climbing Philadelphia TRACON
04:32PM 39.7678 -74.8489 77° East 367 422 12,500 660 Climbing New York Center
04:33PM 39.7950 -74.7236 74° East 378 435 13,700 1,440 Climbing New York Center
04:34PM 39.8775 -74.6281 42° Northeast 372 428 15,400 1,500 Climbing New York Center
04:35PM 39.9722 -74.5386 36° Northeast 385 443 16,700 1,260 Climbing New York Center
04:36PM 40.0817 -74.4361 36° Northeast 423 487 18,000 1,440 Climbing New York Center
04:37PM 40.1761 -74.3486 35° Northeast 447 514 19,600 1,500 Climbing New York Center
04:38PM 40.2892 -74.2647 30° Northeast 458 527 21,000 1,380 Climbing New York Center
04:39PM 40.4000 -74.1750 32° Northeast 469 540 22,400 1,380 Climbing New York Center
04:40PM 40.5108 -74.0850 32° Northeast 464 534 23,800 780 Climbing New York Center
04:41PM 40.6261 -73.9947 31° Northeast 464 534 24,000 60 Climbing New York Center
04:43PM 40.8511 -73.7922 34° Northeast 510 587 24,000 -180 Level Boston Center
04:44PM 40.9561 -73.6636 43° Northeast 514 592 23,500 -540 Descending Boston Center
04:45PM 41.0836 -73.5075 43° Northeast 518 596 23,000 -840 Descending Boston Center
04:46PM 41.2147 -73.4469 19° North 517 595 21,900 -1,080 Descending Boston Center
04:47PM 41.3481 -73.4586 356° North 486 559 20,800 -1,140 Descending Boston Center
04:48PM 41.4714 -73.4675 357° North 449 517 19,600 -960 Descending Boston Center
04:49PM 41.6011 -73.4811 356° North 446 513 18,900 -1,260 Descending Boston Center
04:50PM 41.7247 -73.4925 356° North 447 514 17,100 -1,560 Descending Boston Center
04:51PM 41.8431 -73.5031 356° North 431 496 15,800 -1,500 Descending Boston Center
04:52PM 41.9681 -73.5144 356° North 421 484 14,100 -1,680 Descending Boston Center
04:52PM 41.9778 -73.5133 North 417 480 13,900 -2,340 Descending Boston Center
04:53PM 42.0369 -73.5183 356° North 400 460 12,600 -2,400 Descending Boston Center
04:53PM 42.0653 -73.5206 357° North 397 457 11,900 -1,500 Descending Boston Center
04:54PM 42.1375 -73.5200 360° North 358 412 11,100 -840 Descending Boston Center
04:54PM 42.1611 -73.5181 North 370 426 11,100  Level Boston Center
04:55PM 42.2336 -73.5111 North 337 388 11,100  Level Boston Center
04:55PM 42.2511 -73.5225 334° Northwest 332 382 11,100 -1,380 Level Boston Center
04:56PM 42.3006 -73.5681 326° Northwest 271 312 9,700 -2,220 Descending Boston Center
04:57PM 42.3669 -73.6278 326° Northwest 281 323 7,600 -1,920 Descending Boston Center
04:58PM 42.4311 -73.6869 326° Northwest 280 322 5,900 -1,680 Descending Boston Center
04:59PM 42.4864 -73.7372 326° Northwest 231 266 4,200 -1,800 Descending Boston Center
05:00PM 42.5419 -73.7850 328° Northwest 217 250 2,300 -1,080 Descending Boston Center
05:01PM 42.5869 -73.7972 349° North 142 163 2,100 -120 Descending Boston Center
05:02PM 42.6253 -73.7986 358° North 134 154 2,100 -120 Level Boston Center
05:03PM 42.6614 -73.8019 356° North 133 153 1,900 -420 Descending Boston Center
05:04PM 42.6953 -73.8044 357° North 116 133 1,300 -720 Descending Boston Center
05:05PM 42.7317 -73.8053 359° North 131 151 500 -780 Descending Boston Center
05:07PM 42.7333 -73.8000 North  Level FlightAware Approximate
05:14PM 42.7491 -73.8020 North  Level Estimated